Time;durP1;ratioP1;P1;durP2;ratioP2;P2;SDS_P1;SDS_P2;PMS_P1;PMS_P2;Temp;Humidity;BMP_temperature;BMP_pressure;BME280_temperature;BME280_humidity;BME280_pressure;Samples;Min_cycle;Max_cycle;Signal;HPM_P1;HPM_P2
2022/03/03 00:00:26;;;;;;;;;;;0.00;99.90;;;;;;4171409;28;19936;-53
2022/03/03 00:02:27;;;;;;;;;;;0.00;99.90;;;;;;4169207;28;19968;-54
2022/03/03 00:04:30;;;;;;;;;;;-0.20;99.90;;;;;;4177263;28;19924;-53
2022/03/03 00:06:32;;;;;;;;;;;-0.10;99.90;;;;;;4179462;28;19929;-53
2022/03/03 00:08:34;;;;;;;;;;;-0.10;99.90;;;;;;4178398;28;19929;-54
2022/03/03 00:10:36;;;;;;;;;;;0.00;99.90;;;;;;4177910;28;20400;-54
2022/03/03 00:12:38;;;;;;;;;;;-0.20;99.90;;;;;;4174469;28;19925;-54
2022/03/03 00:14:40;;;;;;;;;;;-0.40;99.90;;;;;;4179889;28;20460;-54
2022/03/03 00:16:42;;;;;;;;;;;-0.30;99.90;;;;;;4179717;28;19929;-54
2022/03/03 00:18:44;;;;;;;;;;;-0.20;99.90;;;;;;4174531;28;19943;-54
2022/03/03 00:20:46;;;;;;;;;;;0.00;99.90;;;;;;4178652;28;19982;-53
2022/03/03 00:22:48;;;;;;;;;;;0.00;99.90;;;;;;4164697;28;19958;-54
2022/03/03 00:24:50;;;;;;;;;;;0.00;99.90;;;;;;4175278;28;19924;-54
2022/03/03 00:26:52;;;;;;;;;;;0.00;99.90;;;;;;4174834;28;19933;-54
2022/03/03 00:28:54;;;;;;;;;;;0.00;99.90;;;;;;4165436;28;20377;-54
2022/03/03 00:30:56;;;;;;;;;;;0.10;99.90;;;;;;4179673;28;19971;-53
2022/03/03 00:32:58;;;;;;;;;;;0.20;99.90;;;;;;4176875;28;20450;-53
2022/03/03 00:35:00;;;;;;;;;;;0.10;99.90;;;;;;4177229;28;20152;-54
2022/03/03 00:37:02;;;;;;;;;;;-0.10;99.90;;;;;;4176844;28;19931;-54
2022/03/03 00:39:04;;;;;;;;;;;-0.10;99.90;;;;;;4179811;28;19928;-55
2022/03/03 00:41:06;;;;;;;;;;;-0.10;99.90;;;;;;4178038;28;19978;-53
2022/03/03 00:43:08;;;;;;;;;;;0.00;99.90;;;;;;4177883;28;20478;-55
2022/03/03 00:45:10;;;;;;;;;;;-0.30;99.90;;;;;;4177864;28;20626;-54
2022/03/03 00:47:12;;;;;;;;;;;-0.30;99.90;;;;;;4166648;28;19933;-54
2022/03/03 00:49:14;;;;;;;;;;;-0.20;99.90;;;;;;4172903;28;19925;-54
2022/03/03 00:51:16;;;;;;;;;;;-0.10;99.90;;;;;;4175188;28;19925;-54
2022/03/03 00:53:18;;;;;;;;;;;-0.20;99.90;;;;;;4170679;28;20570;-54
2022/03/03 00:55:20;;;;;;;;;;;-0.20;99.90;;;;;;4178427;28;19928;-54
2022/03/03 00:57:22;;;;;;;;;;;-0.30;99.90;;;;;;4175756;28;19973;-54
2022/03/03 00:59:24;;;;;;;;;;;-0.40;99.90;;;;;;4177242;28;19976;-54
2022/03/03 01:01:26;;;;;;;;;;;-0.40;99.90;;;;;;4176710;28;19936;-54
2022/03/03 01:03:28;;;;;;;;;;;-0.40;99.90;;;;;;4178206;28;19925;-53
2022/03/03 01:05:30;;;;;;;;;;;-0.40;99.90;;;;;;4176546;28;19924;-54
2022/03/03 01:07:32;;;;;;;;;;;-0.40;99.90;;;;;;4176879;28;19929;-54
2022/03/03 01:09:34;;;;;;;;;;;-0.40;99.90;;;;;;4169197;28;19972;-54
2022/03/03 01:11:36;;;;;;;;;;;-0.50;99.90;;;;;;4175390;28;19932;-54
2022/03/03 01:13:38;;;;;;;;;;;-0.50;99.90;;;;;;4177164;28;20411;-55
2022/03/03 01:15:40;;;;;;;;;;;-0.50;99.90;;;;;;4177548;28;19925;-54
2022/03/03 01:17:42;;;;;;;;;;;-0.50;99.90;;;;;;4177290;28;19935;-54
2022/03/03 01:19:44;;;;;;;;;;;-0.50;99.90;;;;;;4179096;28;19943;-54
2022/03/03 01:21:46;;;;;;;;;;;-0.50;99.90;;;;;;4174174;28;19952;-54
2022/03/03 01:23:48;;;;;;;;;;;-0.50;99.90;;;;;;4177450;28;19947;-54
2022/03/03 01:25:50;;;;;;;;;;;-0.30;99.90;;;;;;4177073;28;19928;-54
2022/03/03 01:27:52;;;;;;;;;;;-0.20;99.90;;;;;;4172462;28;19960;-54
2022/03/03 01:29:54;;;;;;;;;;;-0.10;99.90;;;;;;4165695;28;19929;-55
2022/03/03 01:31:56;;;;;;;;;;;-0.10;99.90;;;;;;4171748;28;19925;-54
2022/03/03 01:33:57;;;;;;;;;;;-0.20;99.90;;;;;;4176142;28;19940;-53
2022/03/03 01:35:59;;;;;;;;;;;-0.20;99.90;;;;;;4178636;28;19928;-54
2022/03/03 01:38:01;;;;;;;;;;;-0.20;99.90;;;;;;4166254;28;19928;-54
2022/03/03 01:40:04;;;;;;;;;;;-0.20;99.90;;;;;;4168911;28;19947;-54
2022/03/03 01:42:06;;;;;;;;;;;-0.30;99.90;;;;;;4165619;28;19984;-55
2022/03/03 01:44:08;;;;;;;;;;;-0.30;99.90;;;;;;4176889;28;19939;-54
2022/03/03 01:46:10;;;;;;;;;;;-0.30;99.90;;;;;;4178389;28;19931;-54
2022/03/03 01:48:12;;;;;;;;;;;-0.50;99.90;;;;;;4172108;28;20016;-54
2022/03/03 01:50:14;;;;;;;;;;;-0.60;99.90;;;;;;4174216;28;19940;-52
2022/03/03 01:52:16;;;;;;;;;;;-0.70;99.90;;;;;;4162954;28;19932;-53
2022/03/03 01:54:18;;;;;;;;;;;-0.70;99.90;;;;;;4176820;28;19931;-53
2022/03/03 01:56:20;;;;;;;;;;;-0.50;99.90;;;;;;4176896;28;19971;-54
2022/03/03 01:58:22;;;;;;;;;;;-0.50;99.90;;;;;;4175935;28;19979;-54
2022/03/03 02:00:24;;;;;;;;;;;-0.50;99.90;;;;;;4173705;28;19936;-52
2022/03/03 02:02:27;;;;;;;;;;;-0.40;99.90;;;;;;4177053;28;20300;-52
2022/03/03 02:04:29;;;;;;;;;;;-0.40;99.90;;;;;;4178117;28;19958;-52
2022/03/03 02:06:31;;;;;;;;;;;-0.40;99.90;;;;;;4175012;28;19968;-52
2022/03/03 02:08:33;;;;;;;;;;;-0.30;99.90;;;;;;4177009;28;19998;-52
2022/03/03 02:10:35;;;;;;;;;;;-0.30;99.90;;;;;;4176215;28;19925;-53
2022/03/03 02:12:37;;;;;;;;;;;-0.20;99.90;;;;;;4168073;28;19925;-53
2022/03/03 02:14:40;;;;;;;;;;;-0.30;99.90;;;;;;4166512;28;19982;-52
2022/03/03 02:16:42;;;;;;;;;;;-0.30;99.90;;;;;;4164387;28;19929;-52
2022/03/03 02:18:44;;;;;;;;;;;-0.30;99.90;;;;;;4169804;28;19926;-53
2022/03/03 02:20:46;;;;;;;;;;;-0.20;99.90;;;;;;4171758;28;19951;-53
2022/03/03 02:22:49;;;;;;;;;;;-0.10;99.90;;;;;;4175924;28;20588;-53
2022/03/03 02:24:51;;;;;;;;;;;-0.20;99.90;;;;;;4175234;28;19939;-53
2022/03/03 02:26:53;;;;;;;;;;;-0.20;99.90;;;;;;4177115;28;19943;-53
2022/03/03 02:28:55;;;;;;;;;;;-0.20;99.90;;;;;;4176148;28;19971;-52
2022/03/03 02:30:57;;;;;;;;;;;0.00;99.90;;;;;;4176974;28;19978;-52
2022/03/03 02:32:59;;;;;;;;;;;0.00;99.90;;;;;;4176846;28;20405;-53
2022/03/03 02:35:01;;;;;;;;;;;0.10;99.90;;;;;;4169944;28;19932;-53
2022/03/03 02:37:03;;;;;;;;;;;0.10;99.90;;;;;;4173416;28;20278;-52
2022/03/03 02:39:06;;;;;;;;;;;-0.10;99.90;;;;;;4177233;28;19932;-53
2022/03/03 02:41:07;;;;;;;;;;;-0.10;99.90;;;;;;4173598;28;20397;-52
2022/03/03 02:43:09;;;;;;;;;;;0.00;99.90;;;;;;4176970;28;19932;-52
2022/03/03 02:45:11;;;;;;;;;;;0.00;99.90;;;;;;4175834;28;20455;-52
2022/03/03 02:47:13;;;;;;;;;;;-0.10;99.90;;;;;;4171788;28;20304;-52
2022/03/03 02:49:15;;;;;;;;;;;-0.20;99.90;;;;;;4162134;28;20735;-53
2022/03/03 02:51:17;;;;;;;;;;;-0.10;99.90;;;;;;4177161;28;19947;-53
2022/03/03 02:53:19;;;;;;;;;;;-0.20;99.90;;;;;;4174860;28;20019;-52
2022/03/03 02:55:21;;;;;;;;;;;-0.30;99.90;;;;;;4171651;28;19929;-52
2022/03/03 02:59:43;;;;;;;;;;;-0.50;99.90;;;;;;4175624;28;19928;-53
2022/03/03 03:01:45;;;;;;;;;;;-0.60;99.90;;;;;;4175879;28;19956;-52
2022/03/03 03:03:47;;;;;;;;;;;-0.50;99.90;;;;;;4175556;28;19979;-52
2022/03/03 03:05:49;;;;;;;;;;;-0.40;99.90;;;;;;4175885;28;19932;-51
2022/03/03 03:07:52;;;;;;;;;;;-0.40;99.90;;;;;;4177110;28;19925;-53
2022/03/03 03:09:53;;;;;;;;;;;-0.50;99.90;;;;;;4169825;28;19987;-53
2022/03/03 03:11:55;;;;;;;;;;;-0.60;99.90;;;;;;4171028;28;19943;-53
2022/03/03 03:13:57;;;;;;;;;;;-0.60;99.90;;;;;;4175170;28;19925;-53
2022/03/03 03:15:59;;;;;;;;;;;-0.50;99.90;;;;;;4173779;28;19924;-53
2022/03/03 03:18:09;;;;;;;;;;;-0.40;99.90;;;;;;4175090;28;20465;-53
2022/03/03 03:20:12;;;;;;;;;;;-0.30;99.90;;;;;;4175476;28;19929;-52
2022/03/03 03:22:14;;;;;;;;;;;-0.30;99.90;;;;;;4175695;28;19933;-53
2022/03/03 03:24:16;;;;;;;;;;;-0.40;99.90;;;;;;4176027;28;19925;-53
2022/03/03 03:26:18;;;;;;;;;;;-0.40;99.90;;;;;;4165091;28;20385;-53
2022/03/03 03:28:20;;;;;;;;;;;-0.50;99.90;;;;;;4171675;28;19987;-52
2022/03/03 03:30:22;;;;;;;;;;;-0.60;99.90;;;;;;4174091;28;20305;-53
2022/03/03 03:32:23;;;;;;;;;;;-0.50;99.90;;;;;;4170915;28;20298;-52
2022/03/03 03:34:25;;;;;;;;;;;-0.40;99.90;;;;;;4177028;28;19925;-53
2022/03/03 03:36:30;;;;;;;;;;;-0.40;99.90;;;;;;4174084;28;19928;-52
2022/03/03 03:38:32;;;;;;;;;;;-0.50;99.90;;;;;;4174639;28;19929;-53
2022/03/03 03:40:34;;;;;;;;;;;-0.50;99.90;;;;;;4175545;28;20340;-52
2022/03/03 03:42:36;;;;;;;;;;;-0.60;99.90;;;;;;4164212;28;19929;-53
2022/03/03 03:44:38;;;;;;;;;;;-0.60;99.90;;;;;;4170174;28;19936;-53
2022/03/03 03:46:41;;;;;;;;;;;-0.70;99.90;;;;;;4167840;28;19932;-52
2022/03/03 03:48:43;;;;;;;;;;;-0.70;99.90;;;;;;4174101;28;19958;-53
2022/03/03 03:50:45;;;;;;;;;;;-0.80;99.90;;;;;;4175812;28;19925;-52
2022/03/03 03:52:46;;;;;;;;;;;-0.80;99.90;;;;;;4163812;28;19925;-53
2022/03/03 03:54:48;;;;;;;;;;;-0.80;99.90;;;;;;4167787;28;19935;-53
2022/03/03 03:56:50;;;;;;;;;;;-0.90;99.90;;;;;;4176803;28;20010;-53
2022/03/03 03:58:52;;;;;;;;;;;-0.90;99.90;;;;;;4161292;28;19926;-52
2022/03/03 04:00:54;;;;;;;;;;;-0.90;99.90;;;;;;4166852;28;19936;-53
2022/03/03 04:02:56;;;;;;;;;;;-0.80;99.90;;;;;;4168310;28;20442;-53
2022/03/03 04:04:58;;;;;;;;;;;-0.70;99.90;;;;;;4166301;28;19933;-53
2022/03/03 04:07:01;;;;;;;;;;;-0.80;99.90;;;;;;4175597;28;19975;-53
2022/03/03 04:09:04;;;;;;;;;;;-0.80;99.90;;;;;;4175258;28;19928;-53
2022/03/03 04:11:06;;;;;;;;;;;-0.80;99.90;;;;;;4175256;28;19932;-52
2022/03/03 04:13:08;;;;;;;;;;;-0.80;99.90;;;;;;4175101;28;19959;-52
2022/03/03 04:15:10;;;;;;;;;;;-0.80;99.90;;;;;;4160571;28;19936;-53
2022/03/03 04:17:12;;;;;;;;;;;-0.80;99.90;;;;;;4165796;28;19956;-53
2022/03/03 04:19:14;;;;;;;;;;;-0.70;99.90;;;;;;4169276;28;20448;-53
2022/03/03 04:21:16;;;;;;;;;;;-0.70;99.90;;;;;;4174847;28;19952;-53
2022/03/03 04:23:19;;;;;;;;;;;-0.80;99.90;;;;;;4176635;28;19960;-53
2022/03/03 04:25:21;;;;;;;;;;;-0.80;99.90;;;;;;4175127;28;19932;-52
2022/03/03 04:27:23;;;;;;;;;;;-0.70;99.90;;;;;;4169532;28;19925;-52
2022/03/03 04:29:25;;;;;;;;;;;-0.70;99.90;;;;;;4174247;28;19933;-52
2022/03/03 04:31:27;;;;;;;;;;;-0.60;99.90;;;;;;4160640;28;19983;-52
2022/03/03 04:33:30;;;;;;;;;;;-0.50;99.90;;;;;;4161319;28;19929;-53
2022/03/03 04:35:32;;;;;;;;;;;-0.50;99.90;;;;;;4167542;28;19974;-52
2022/03/03 04:37:34;;;;;;;;;;;-0.60;99.90;;;;;;4165764;28;20031;-52
2022/03/03 04:39:36;;;;;;;;;;;-0.60;99.90;;;;;;4168356;28;19975;-52
2022/03/03 04:41:39;;;;;;;;;;;-0.60;99.90;;;;;;4177150;28;19987;-52
2022/03/03 04:43:41;;;;;;;;;;;-0.70;99.90;;;;;;4177696;28;19964;-53
2022/03/03 04:45:43;;;;;;;;;;;-0.80;99.90;;;;;;4175586;28;20407;-51
2022/03/03 04:47:45;;;;;;;;;;;-0.80;99.90;;;;;;4179285;28;20122;-52
2022/03/03 04:49:47;;;;;;;;;;;-0.70;99.90;;;;;;4177336;28;20067;-53
2022/03/03 04:51:49;;;;;;;;;;;-0.60;99.90;;;;;;4172761;28;19929;-52
2022/03/03 04:53:51;;;;;;;;;;;-0.50;99.90;;;;;;4169024;28;20004;-53
2022/03/03 04:55:54;;;;;;;;;;;-0.50;99.90;;;;;;4168422;28;19929;-53
2022/03/03 04:57:56;;;;;;;;;;;-0.50;99.90;;;;;;4176083;28;20007;-52
2022/03/03 04:59:58;;;;;;;;;;;-0.50;99.90;;;;;;4166196;28;19979;-52
2022/03/03 05:02:00;;;;;;;;;;;-0.50;99.90;;;;;;4171366;28;19924;-52
2022/03/03 05:04:02;;;;;;;;;;;-0.60;99.90;;;;;;4177955;28;19928;-52
2022/03/03 05:06:04;;;;;;;;;;;-0.70;99.90;;;;;;4178254;28;19933;-53
2022/03/03 05:08:06;;;;;;;;;;;-0.80;99.90;;;;;;4168589;28;19925;-53
2022/03/03 05:10:08;;;;;;;;;;;-0.80;99.90;;;;;;4168215;28;19968;-52
2022/03/03 05:12:10;;;;;;;;;;;-0.90;99.90;;;;;;4171025;28;20286;-52
2022/03/03 05:14:12;;;;;;;;;;;-1.00;99.90;;;;;;4173258;28;20389;-52
2022/03/03 05:16:14;;;;;;;;;;;-1.10;99.90;;;;;;4174055;28;19933;-52
2022/03/03 05:18:16;;;;;;;;;;;-1.10;99.90;;;;;;4175389;28;19959;-53
2022/03/03 05:20:18;;;;;;;;;;;-1.20;99.90;;;;;;4176823;28;19936;-51
2022/03/03 05:22:20;;;;;;;;;;;-1.10;99.90;;;;;;4177690;28;20352;-52
2022/03/03 05:24:22;;;;;;;;;;;-1.10;99.90;;;;;;4172942;28;20381;-52
2022/03/03 05:26:24;;;;;;;;;;;-1.10;99.90;;;;;;4171797;28;20466;-53
2022/03/03 05:28:26;;;;;;;;;;;-1.20;99.90;;;;;;4164055;28;19925;-53
2022/03/03 05:30:28;;;;;;;;;;;-1.20;99.90;;;;;;4162410;28;19929;-53
2022/03/03 05:32:30;;;;;;;;;;;-1.10;99.90;;;;;;4165518;28;19992;-52
2022/03/03 05:34:33;;;;;;;;;;;-1.20;99.90;;;;;;4171677;28;20036;-53
2022/03/03 05:36:41;;;;;;;;;;;-1.20;99.90;;;;;;4167023;28;19975;-53
2022/03/03 05:38:43;;;;;;;;;;;-1.20;99.90;;;;;;4162508;28;19929;-53
2022/03/03 05:40:45;;;;;;;;;;;-1.00;99.90;;;;;;4175777;28;19925;-52
2022/03/03 05:42:47;;;;;;;;;;;-0.90;99.90;;;;;;4171378;28;20015;-52
2022/03/03 05:44:49;;;;;;;;;;;-0.90;99.90;;;;;;4172274;28;19972;-52
2022/03/03 05:46:51;;;;;;;;;;;-0.90;99.90;;;;;;4165902;28;20593;-52
2022/03/03 05:48:53;;;;;;;;;;;-0.90;99.90;;;;;;4174906;28;20373;-53
2022/03/03 05:50:55;;;;;;;;;;;-0.90;99.90;;;;;;4175972;28;20019;-52
2022/03/03 05:52:59;;;;;;;;;;;-1.00;99.90;;;;;;4171193;28;19925;-53
2022/03/03 05:55:01;;;;;;;;;;;-1.00;99.90;;;;;;4175127;28;19925;-52
2022/03/03 05:57:10;;;;;;;;;;;-1.10;99.90;;;;;;4162405;28;19979;-53
2022/03/03 05:59:13;;;;;;;;;;;-1.10;99.90;;;;;;4168357;28;20397;-54
2022/03/03 06:01:16;;;;;;;;;;;-1.10;99.90;;;;;;4175725;28;19928;-53
2022/03/03 06:03:19;;;;;;;;;;;-1.10;99.90;;;;;;4163617;28;19925;-52
2022/03/03 06:05:25;;;;;;;;;;;-1.20;99.90;;;;;;4170113;28;19975;-52
2022/03/03 06:07:28;;;;;;;;;;;-1.20;99.90;;;;;;4173749;28;19925;-52
2022/03/03 06:09:32;;;;;;;;;;;-1.30;99.90;;;;;;4175087;28;19929;-52
2022/03/03 06:11:35;;;;;;;;;;;-1.30;99.90;;;;;;4175716;28;19928;-52
2022/03/03 06:13:45;;;;;;;;;;;-1.20;99.90;;;;;;4178377;28;19929;-52
2022/03/03 06:15:47;;;;;;;;;;;-1.30;99.90;;;;;;4176141;28;20308;-51
2022/03/03 06:17:50;;;;;;;;;;;-1.30;99.90;;;;;;4174715;28;20282;-52
2022/03/03 06:19:52;;;;;;;;;;;-1.30;99.90;;;;;;4175058;28;19980;-52
2022/03/03 06:21:54;;;;;;;;;;;-1.20;99.90;;;;;;4170990;28;19929;-52
2022/03/03 06:23:56;;;;;;;;;;;-1.20;99.90;;;;;;4173219;28;19960;-50
2022/03/03 06:26:03;;;;;;;;;;;-1.10;99.90;;;;;;4170150;28;20272;-51
2022/03/03 06:28:05;;;;;;;;;;;-1.00;99.90;;;;;;4171766;28;19940;-50
2022/03/03 06:30:07;;;;;;;;;;;-0.90;99.90;;;;;;4177553;28;20341;-49
2022/03/03 06:32:09;;;;;;;;;;;-0.90;99.90;;;;;;4176492;28;19924;-52
2022/03/03 06:34:11;;;;;;;;;;;-0.80;99.90;;;;;;4168947;28;19929;-50
2022/03/03 06:36:14;;;;;;;;;;;-0.70;99.90;;;;;;4167654;28;20385;-51
2022/03/03 06:38:17;;;;;;;;;;;-0.60;99.90;;;;;;4164201;28;20583;-51
2022/03/03 06:40:18;;;;;;;;;;;-0.50;99.90;;;;;;4171330;28;20456;-50
2022/03/03 06:42:20;;;;;;;;;;;-0.60;99.90;;;;;;4166292;28;20367;-50
2022/03/03 06:44:22;;;;;;;;;;;-0.60;99.90;;;;;;4169557;28;19963;-52
2022/03/03 06:46:24;;;;;;;;;;;-0.60;99.90;;;;;;4164275;28;19987;-50
2022/03/03 06:48:26;;;;;;;;;;;-0.60;99.90;;;;;;4174637;28;19931;-51
2022/03/03 06:50:28;;;;;;;;;;;-0.50;99.90;;;;;;4173888;28;20002;-50
2022/03/03 06:52:31;;;;;;;;;;;-0.40;99.90;;;;;;4174819;28;19938;-49
2022/03/03 06:54:33;;;;;;;;;;;-0.30;99.90;;;;;;4176466;28;19929;-50
2022/03/03 06:56:36;;;;;;;;;;;-0.30;99.90;;;;;;4166897;28;20320;-48
2022/03/03 06:58:39;;;;;;;;;;;-0.20;99.90;;;;;;4163876;28;19925;-52
2022/03/03 07:00:42;;;;;;;;;;;-0.30;99.90;;;;;;4168405;28;19925;-51
2022/03/03 07:02:46;;;;;;;;;;;-0.30;99.90;;;;;;4177235;28;20024;-52
2022/03/03 07:04:48;;;;;;;;;;;-0.30;99.90;;;;;;4175769;28;20347;-51
2022/03/03 07:06:50;;;;;;;;;;;-0.40;99.90;;;;;;4174921;28;19952;-52
2022/03/03 07:08:55;;;;;;;;;;;-0.40;99.90;;;;;;4174280;28;20007;-52
2022/03/03 07:10:58;;;;;;;;;;;-0.40;99.90;;;;;;4176197;28;19929;-51
2022/03/03 07:13:00;;;;;;;;;;;-0.50;99.90;;;;;;4164643;28;19936;-51
2022/03/03 07:15:02;;;;;;;;;;;-0.40;99.90;;;;;;4170646;28;19937;-49
2022/03/03 07:17:05;;;;;;;;;;;-0.40;99.90;;;;;;4166559;28;19995;-51
2022/03/03 07:19:19;;;;;;;;;;;-0.40;99.90;;;;;;4173032;28;20325;-51
2022/03/03 07:21:40;;;;;;;;;;;-0.30;99.90;;;;;;4161181;28;19929;-52
2022/03/03 07:23:55;;;;;;;;;;;-0.30;99.90;;;;;;4175128;28;19994;-49
2022/03/03 07:25:58;;;;;;;;;;;-0.10;99.90;;;;;;4172599;28;19925;-50
2022/03/03 07:28:01;;;;;;;;;;;-0.10;99.90;;;;;;4169161;28;20010;-52
2022/03/03 07:30:07;;;;;;;;;;;0.00;99.90;;;;;;4161974;28;19983;-51
2022/03/03 07:32:09;;;;;;;;;;;0.00;99.90;;;;;;4173067;28;19928;-50
2022/03/03 07:34:12;;;;;;;;;;;0.10;99.90;;;;;;4172788;28;19975;-50
2022/03/03 07:36:18;;;;;;;;;;;0.20;99.90;;;;;;4169617;28;19975;-51
2022/03/03 07:38:24;;;;;;;;;;;0.20;99.90;;;;;;4175575;28;19925;-51
2022/03/03 07:40:27;;;;;;;;;;;0.20;99.90;;;;;;4176767;28;19932;-51
2022/03/03 07:42:29;;;;;;;;;;;0.30;99.90;;;;;;4174951;28;19925;-52
2022/03/03 07:44:34;;;;;;;;;;;0.30;99.90;;;;;;4175051;28;19979;-51
2022/03/03 07:46:37;;;;;;;;;;;0.40;99.90;;;;;;4172472;28;19979;-51
2022/03/03 07:48:39;;;;;;;;;;;0.50;99.90;;;;;;4161485;28;20397;-51
2022/03/03 07:50:42;;;;;;;;;;;0.50;99.90;;;;;;4170170;28;19987;-52
2022/03/03 07:52:44;;;;;;;;;;;0.60;99.90;;;;;;4174659;28;19928;-51
2022/03/03 07:54:46;;;;;;;;;;;0.70;99.90;;;;;;4165316;28;20318;-51
2022/03/03 07:56:54;;;;;;;;;;;0.70;99.90;;;;;;4164217;28;19925;-51
2022/03/03 07:59:03;;;;;;;;;;;0.80;99.90;;;;;;4176690;28;19925;-51
2022/03/03 08:01:07;;;;;;;;;;;0.80;99.90;;;;;;4173957;28;19974;-52
2022/03/03 08:03:10;;;;;;;;;;;0.90;99.90;;;;;;4173880;28;19925;-52
2022/03/03 08:05:12;;;;;;;;;;;1.00;99.90;;;;;;4175443;28;19929;-50
2022/03/03 08:07:15;;;;;;;;;;;1.00;99.90;;;;;;4172636;28;19932;-52
2022/03/03 08:09:17;;;;;;;;;;;1.10;99.90;;;;;;4172581;28;20388;-51
2022/03/03 08:11:19;;;;;;;;;;;1.20;99.90;;;;;;4170221;28;19929;-52
2022/03/03 08:13:22;;;;;;;;;;;1.30;99.90;;;;;;4175435;28;19925;-51
2022/03/03 08:15:25;;;;;;;;;;;1.30;99.90;;;;;;4176026;28;19982;-51
2022/03/03 08:17:27;;;;;;;;;;;1.40;99.90;;;;;;4175022;28;19928;-52
2022/03/03 08:19:29;;;;;;;;;;;1.50;99.90;;;;;;4176635;28;20375;-49
2022/03/03 08:21:32;;;;;;;;;;;1.50;99.90;;;;;;4177182;28;19936;-51
2022/03/03 08:23:34;;;;;;;;;;;1.50;99.90;;;;;;4164946;28;19929;-50
2022/03/03 08:25:36;;;;;;;;;;;1.40;99.90;;;;;;4171463;28;19925;-52
2022/03/03 08:27:39;;;;;;;;;;;1.40;99.90;;;;;;4172145;28;19929;-51
2022/03/03 08:29:41;;;;;;;;;;;1.50;99.90;;;;;;4177215;28;19929;-52
2022/03/03 08:31:45;;;;;;;;;;;1.50;99.90;;;;;;4176425;28;19929;-51
2022/03/03 08:33:50;;;;;;;;;;;1.60;99.90;;;;;;4177604;28;19925;-52
2022/03/03 08:35:56;;;;;;;;;;;1.70;99.90;;;;;;4176810;28;20468;-50
2022/03/03 08:38:06;;;;;;;;;;;1.80;99.90;;;;;;4177233;28;19979;-49
2022/03/03 08:40:10;;;;;;;;;;;1.90;99.90;;;;;;4178227;28;19932;-50
2022/03/03 08:42:16;;;;;;;;;;;2.10;99.90;;;;;;4167643;28;19964;-51
2022/03/03 08:44:24;;;;;;;;;;;2.10;99.90;;;;;;4177127;28;20023;-51
2022/03/03 08:46:26;;;;;;;;;;;2.20;99.90;;;;;;4176929;28;19924;-51
2022/03/03 08:48:31;;;;;;;;;;;2.30;99.90;;;;;;4172372;28;19929;-48
2022/03/03 08:50:35;;;;;;;;;;;2.40;99.90;;;;;;4178349;28;19924;-52
2022/03/03 08:52:38;;;;;;;;;;;2.50;99.90;;;;;;4176936;28;19924;-51
2022/03/03 08:54:40;;;;;;;;;;;2.60;99.90;;;;;;4177078;28;19932;-53
2022/03/03 08:56:42;;;;;;;;;;;2.70;99.90;;;;;;4177069;28;19931;-51
2022/03/03 08:58:44;;;;;;;;;;;2.80;99.90;;;;;;4179295;28;19925;-50
2022/03/03 09:00:48;;;;;;;;;;;2.90;99.90;;;;;;4171593;28;19935;-51
2022/03/03 09:02:50;;;;;;;;;;;3.00;99.90;;;;;;4176778;28;20481;-52
2022/03/03 09:04:52;;;;;;;;;;;3.10;99.90;;;;;;4170476;28;20296;-51
2022/03/03 09:06:54;;;;;;;;;;;3.30;99.90;;;;;;4179011;28;19969;-53
2022/03/03 09:08:56;;;;;;;;;;;3.30;99.90;;;;;;4164845;28;19936;-52
2022/03/03 09:10:58;;;;;;;;;;;3.40;99.90;;;;;;4173331;28;19952;-52
2022/03/03 09:13:00;;;;;;;;;;;3.40;99.90;;;;;;4175363;28;19929;-51
2022/03/03 09:15:03;;;;;;;;;;;3.50;99.90;;;;;;4163971;28;19925;-52
2022/03/03 09:17:06;;;;;;;;;;;3.60;99.90;;;;;;4169078;28;19929;-53
2022/03/03 09:19:08;;;;;;;;;;;3.60;99.90;;;;;;4167038;28;19972;-52
2022/03/03 09:21:11;;;;;;;;;;;3.80;99.90;;;;;;4177441;28;19929;-52
2022/03/03 09:23:13;;;;;;;;;;;4.10;99.90;;;;;;4172165;28;20308;-53
2022/03/03 09:25:14;;;;;;;;;;;4.20;99.90;;;;;;4179023;28;19972;-51
2022/03/03 09:27:16;;;;;;;;;;;4.10;99.90;;;;;;4177232;28;19955;-52
2022/03/03 09:29:19;;;;;;;;;;;4.20;99.90;;;;;;4175534;28;19963;-52
2022/03/03 09:31:21;;;;;;;;;;;4.50;99.90;;;;;;4177521;28;19925;-53
2022/03/03 09:33:23;;;;;;;;;;;4.80;99.90;;;;;;4177829;28;19935;-50
2022/03/03 09:35:26;;;;;;;;;;;4.80;99.90;;;;;;4172875;28;19955;-52
2022/03/03 09:37:28;;;;;;;;;;;4.90;99.90;;;;;;4168196;28;19929;-53
2022/03/03 09:39:30;;;;;;;;;;;5.00;99.90;;;;;;4177049;28;19932;-52
2022/03/03 09:41:32;;;;;;;;;;;5.10;99.90;;;;;;4177603;28;19955;-53
2022/03/03 09:43:34;;;;;;;;;;;5.20;99.90;;;;;;4174877;28;20016;-52
2022/03/03 09:45:36;;;;;;;;;;;5.30;99.90;;;;;;4176798;28;19929;-53
2022/03/03 09:47:38;;;;;;;;;;;5.30;99.90;;;;;;4177415;28;19932;-52
2022/03/03 09:49:40;;;;;;;;;;;5.40;99.90;;;;;;4163871;28;19972;-52
2022/03/03 09:51:42;;;;;;;;;;;5.40;99.90;;;;;;4170976;28;19948;-53
2022/03/03 09:53:49;;;;;;;;;;;5.30;99.90;;;;;;4169639;28;20224;-50
2022/03/03 09:55:51;;;;;;;;;;;5.40;99.90;;;;;;4165166;28;19933;-51
2022/03/03 09:57:53;;;;;;;;;;;5.50;99.90;;;;;;4178366;28;19977;-52
2022/03/03 09:59:57;;;;;;;;;;;5.50;99.90;;;;;;4176976;28;20015;-50
2022/03/03 10:02:03;;;;;;;;;;;5.70;99.90;;;;;;4176998;28;20369;-52
2022/03/03 10:04:24;;;;;;;;;;;5.90;99.90;;;;;;4177109;28;19933;-52
2022/03/03 10:06:26;;;;;;;;;;;5.90;99.90;;;;;;4181894;28;19925;-52
2022/03/03 10:08:29;;;;;;;;;;;5.80;99.90;;;;;;4177024;28;19925;-52
2022/03/03 10:10:32;;;;;;;;;;;5.90;99.90;;;;;;4175458;28;19925;-53
2022/03/03 10:12:41;;;;;;;;;;;6.10;99.90;;;;;;4176316;28;20697;-53
2022/03/03 10:14:48;;;;;;;;;;;6.30;99.90;;;;;;4176856;28;19970;-53
2022/03/03 10:16:50;;;;;;;;;;;6.50;99.90;;;;;;4161745;28;20286;-50
2022/03/03 10:19:12;;;;;;;;;;;6.40;99.90;;;;;;4163175;28;19952;-52
2022/03/03 10:21:14;;;;;;;;;;;6.30;99.90;;;;;;4173152;28;19972;-53
2022/03/03 10:23:17;;;;;;;;;;;6.40;99.90;;;;;;4176312;28;20398;-51
2022/03/03 10:25:36;;;;;;;;;;;6.50;99.90;;;;;;4177091;28;20424;-53
2022/03/03 10:27:38;;;;;;;;;;;6.40;99.30;;;;;;4174202;28;19964;-52
2022/03/03 10:29:46;;;;;;;;;;;6.50;99.30;;;;;;4175049;28;19925;-51
2022/03/03 10:31:49;;;;;;;;;;;6.30;99.00;;;;;;4176613;28;20023;-51
2022/03/03 10:33:50;;;;;;;;;;;6.30;99.20;;;;;;4169237;28;20472;-53
2022/03/03 10:35:58;;;;;;;;;;;6.30;98.30;;;;;;4175632;28;19929;-52
2022/03/03 10:38:03;;;;;;;;;;;6.30;98.70;;;;;;4176359;28;19932;-51
2022/03/03 10:40:08;;;;;;;;;;;6.60;98.20;;;;;;4174172;28;19929;-51
2022/03/03 10:42:21;;;;;;;;;;;6.80;97.20;;;;;;4174157;28;19978;-52
2022/03/03 10:44:30;;;;;;;;;;;6.90;98.90;;;;;;4169348;28;19924;-51
2022/03/03 10:46:33;;;;;;;;;;;7.10;98.90;;;;;;4161911;28;19955;-53
2022/03/03 10:48:35;;;;;;;;;;;7.40;97.00;;;;;;4174239;28;20020;-52
2022/03/03 10:50:44;;;;;;;;;;;7.30;97.60;;;;;;4170378;28;19928;-52
2022/03/03 10:52:46;;;;;;;;;;;7.50;96.00;;;;;;4172596;28;19983;-52
2022/03/03 10:54:49;;;;;;;;;;;7.50;94.40;;;;;;4177531;28;20289;-51
2022/03/03 10:56:51;;;;;;;;;;;7.60;96.50;;;;;;4175674;28;20309;-53
2022/03/03 10:58:57;;;;;;;;;;;7.40;94.50;;;;;;4175593;28;19929;-51
2022/03/03 11:00:59;;;;;;;;;;;7.60;96.10;;;;;;4175737;28;19931;-51
2022/03/03 11:03:03;;;;;;;;;;;7.80;94.00;;;;;;4163694;28;19956;-52
2022/03/03 11:05:05;;;;;;;;;;;7.90;95.00;;;;;;4169917;28;19936;-51
2022/03/03 11:07:08;;;;;;;;;;;8.30;94.20;;;;;;4172979;28;20015;-52
2022/03/03 11:09:10;;;;;;;;;;;8.50;94.10;;;;;;4169493;28;19928;-52
2022/03/03 11:11:13;;;;;;;;;;;9.00;93.10;;;;;;4166838;28;19929;-51
2022/03/03 11:13:15;;;;;;;;;;;8.90;90.10;;;;;;4176174;28;20019;-53
2022/03/03 11:15:19;;;;;;;;;;;9.50;88.60;;;;;;4175542;28;19972;-52
2022/03/03 11:17:20;;;;;;;;;;;9.60;82.90;;;;;;4173616;28;20019;-53
2022/03/03 11:19:22;;;;;;;;;;;9.50;86.50;;;;;;4176903;28;19925;-51
2022/03/03 11:21:24;;;;;;;;;;;9.70;87.90;;;;;;4176211;28;19928;-52
2022/03/03 11:23:36;;;;;;;;;;;10.00;83.80;;;;;;4175748;28;20024;-52
2022/03/03 11:25:38;;;;;;;;;;;9.50;85.70;;;;;;4169486;28;19971;-52
2022/03/03 11:27:41;;;;;;;;;;;9.40;84.30;;;;;;4175841;28;19975;-52
2022/03/03 11:30:03;;;;;;;;;;;9.50;83.80;;;;;;4167621;28;19932;-52
2022/03/03 11:32:09;;;;;;;;;;;9.50;85.30;;;;;;4163871;28;20385;-53
2022/03/03 11:34:38;;;;;;;;;;;9.10;83.10;;;;;;4171503;28;19925;-52
2022/03/03 11:36:45;;;;;;;;;;;9.40;86.10;;;;;;4174824;28;19968;-52
2022/03/03 11:38:54;;;;;;;;;;;9.00;83.10;;;;;;4171610;28;20344;-51
2022/03/03 11:41:01;;;;;;;;;;;9.00;84.00;;;;;;4164209;28;19925;-51
2022/03/03 11:43:12;;;;;;;;;;;9.20;85.40;;;;;;4171284;28;19971;-52
2022/03/03 11:45:17;;;;;;;;;;;9.30;83.60;;;;;;4174291;28;19955;-53
2022/03/03 11:47:25;;;;;;;;;;;9.70;85.20;;;;;;4173409;28;20377;-53
2022/03/03 11:49:28;;;;;;;;;;;9.70;82.10;;;;;;4172482;28;19936;-51
2022/03/03 11:51:32;;;;;;;;;;;9.70;83.90;;;;;;4169077;28;20585;-52
2022/03/03 11:54:05;;;;;;;;;;;9.80;82.20;;;;;;4175231;28;19964;-53
2022/03/03 11:56:10;;;;;;;;;;;9.60;81.00;;;;;;4176169;28;19985;-52
2022/03/03 11:58:15;;;;;;;;;;;9.80;83.40;;;;;;4181911;28;20384;-53
2022/03/03 12:00:18;;;;;;;;;;;10.40;82.00;;;;;;4169064;28;19951;-53
2022/03/03 12:02:30;;;;;;;;;;;10.20;82.50;;;;;;4171391;28;20412;-52
2022/03/03 12:04:33;;;;;;;;;;;10.60;82.20;;;;;;4173094;28;19932;-53